sensor_id;sensor_type;location;lat;lon;timestamp;temperature;humidity
5027;DHT22;2532;52.480;13.354;2023-12-28T00:00:14;6.90;99.90
5027;DHT22;2532;52.480;13.354;2023-12-28T00:02:41;6.90;99.90
5027;DHT22;2532;52.480;13.354;2023-12-28T00:05:08;6.90;99.90
5027;DHT22;2532;52.480;13.354;2023-12-28T00:07:35;6.90;99.90
5027;DHT22;2532;52.480;13.354;2023-12-28T00:10:04;7.00;99.90
5027;DHT22;2532;52.480;13.354;2023-12-28T00:12:31;7.00;99.90
5027;DHT22;2532;52.480;13.354;2023-12-28T00:14:58;7.00;99.90
5027;DHT22;2532;52.480;13.354;2023-12-28T00:17:25;7.00;99.90
5027;DHT22;2532;52.480;13.354;2023-12-28T00:19:52;7.10;99.90
5027;DHT22;2532;52.480;13.354;2023-12-28T00:22:20;7.10;99.90
5027;DHT22;2532;52.480;13.354;2023-12-28T00:24:47;7.10;99.90
5027;DHT22;2532;52.480;13.354;2023-12-28T00:27:15;7.10;99.90
5027;DHT22;2532;52.480;13.354;2023-12-28T00:29:42;7.10;99.90
5027;DHT22;2532;52.480;13.354;2023-12-28T00:32:09;7.10;99.90
5027;DHT22;2532;52.480;13.354;2023-12-28T00:34:36;7.10;99.90
5027;DHT22;2532;52.480;13.354;2023-12-28T00:37:08;7.20;99.90
5027;DHT22;2532;52.480;13.354;2023-12-28T00:39:35;7.10;99.90
5027;DHT22;2532;52.480;13.354;2023-12-28T00:42:03;7.20;99.90
5027;DHT22;2532;52.480;13.354;2023-12-28T00:44:32;7.20;99.90
5027;DHT22;2532;52.480;13.354;2023-12-28T00:46:59;7.20;99.90
5027;DHT22;2532;52.480;13.354;2023-12-28T00:49:26;7.20;99.90
5027;DHT22;2532;52.480;13.354;2023-12-28T00:51:52;7.30;99.90
5027;DHT22;2532;52.480;13.354;2023-12-28T00:54:19;7.20;99.90
5027;DHT22;2532;52.480;13.354;2023-12-28T00:56:46;7.30;99.90
5027;DHT22;2532;52.480;13.354;2023-12-28T00:59:13;7.20;99.90
5027;DHT22;2532;52.480;13.354;2023-12-28T01:01:42;7.30;99.80
5027;DHT22;2532;52.480;13.354;2023-12-28T01:04:09;7.30;99.80
5027;DHT22;2532;52.480;13.354;2023-12-28T01:06:36;7.20;99.80
5027;DHT22;2532;52.480;13.354;2023-12-28T01:09:05;7.30;99.80
5027;DHT22;2532;52.480;13.354;2023-12-28T01:11:33;7.30;99.80
5027;DHT22;2532;52.480;13.354;2023-12-28T01:13:59;7.30;99.70
5027;DHT22;2532;52.480;13.354;2023-12-28T01:16:26;7.30;99.70
5027;DHT22;2532;52.480;13.354;2023-12-28T01:18:56;7.30;99.60
5027;DHT22;2532;52.480;13.354;2023-12-28T01:21:23;7.40;99.60
5027;DHT22;2532;52.480;13.354;2023-12-28T01:23:50;7.40;99.60
5027;DHT22;2532;52.480;13.354;2023-12-28T01:26:17;7.40;99.50
5027;DHT22;2532;52.480;13.354;2023-12-28T01:28:44;7.40;99.40
5027;DHT22;2532;52.480;13.354;2023-12-28T01:31:11;7.40;99.30
5027;DHT22;2532;52.480;13.354;2023-12-28T01:33:38;7.40;99.30
5027;DHT22;2532;52.480;13.354;2023-12-28T01:36:16;7.50;99.30
5027;DHT22;2532;52.480;13.354;2023-12-28T01:38:43;7.50;99.20
5027;DHT22;2532;52.480;13.354;2023-12-28T01:41:10;7.50;99.10
5027;DHT22;2532;52.480;13.354;2023-12-28T01:43:38;7.50;99.10
5027;DHT22;2532;52.480;13.354;2023-12-28T01:46:06;7.50;99.00
5027;DHT22;2532;52.480;13.354;2023-12-28T01:48:35;7.50;99.00
5027;DHT22;2532;52.480;13.354;2023-12-28T01:51:03;7.60;98.90
5027;DHT22;2532;52.480;13.354;2023-12-28T01:53:31;7.50;98.80
5027;DHT22;2532;52.480;13.354;2023-12-28T01:55:59;7.60;98.80
5027;DHT22;2532;52.480;13.354;2023-12-28T01:58:26;7.60;98.70
5027;DHT22;2532;52.480;13.354;2023-12-28T02:00:56;7.60;98.70
5027;DHT22;2532;52.480;13.354;2023-12-28T02:03:23;7.60;98.60
5027;DHT22;2532;52.480;13.354;2023-12-28T02:05:51;7.60;98.60
5027;DHT22;2532;52.480;13.354;2023-12-28T02:08:19;7.60;98.60
5027;DHT22;2532;52.480;13.354;2023-12-28T02:10:48;7.70;98.60
5027;DHT22;2532;52.480;13.354;2023-12-28T02:13:15;7.70;98.50
5027;DHT22;2532;52.480;13.354;2023-12-28T02:15:43;7.70;98.40
5027;DHT22;2532;52.480;13.354;2023-12-28T02:18:20;7.70;98.30
5027;DHT22;2532;52.480;13.354;2023-12-28T02:20:48;7.80;98.30
5027;DHT22;2532;52.480;13.354;2023-12-28T02:23:16;7.90;98.10
5027;DHT22;2532;52.480;13.354;2023-12-28T02:25:44;7.90;97.80
5027;DHT22;2532;52.480;13.354;2023-12-28T02:28:11;8.00;97.70
5027;DHT22;2532;52.480;13.354;2023-12-28T02:30:38;8.10;97.60
5027;DHT22;2532;52.480;13.354;2023-12-28T02:33:11;8.10;97.40
5027;DHT22;2532;52.480;13.354;2023-12-28T02:35:43;8.10;97.20
5027;DHT22;2532;52.480;13.354;2023-12-28T02:38:12;8.20;97.10
5027;DHT22;2532;52.480;13.354;2023-12-28T02:40:41;8.30;96.90
5027;DHT22;2532;52.480;13.354;2023-12-28T02:43:11;8.30;96.60
5027;DHT22;2532;52.480;13.354;2023-12-28T02:45:38;8.40;96.50
5027;DHT22;2532;52.480;13.354;2023-12-28T02:48:06;8.40;96.40
5027;DHT22;2532;52.480;13.354;2023-12-28T02:50:34;8.50;96.20
5027;DHT22;2532;52.480;13.354;2023-12-28T02:53:01;8.60;96.00
5027;DHT22;2532;52.480;13.354;2023-12-28T02:55:28;8.60;95.90
5027;DHT22;2532;52.480;13.354;2023-12-28T02:57:56;8.70;95.60
5027;DHT22;2532;52.480;13.354;2023-12-28T03:00:26;8.70;95.30
5027;DHT22;2532;52.480;13.354;2023-12-28T03:02:53;8.80;95.00
5027;DHT22;2532;52.480;13.354;2023-12-28T03:05:20;8.90;94.90
5027;DHT22;2532;52.480;13.354;2023-12-28T03:07:47;9.00;95.00
5027;DHT22;2532;52.480;13.354;2023-12-28T03:10:14;9.10;94.30
5027;DHT22;2532;52.480;13.354;2023-12-28T03:12:41;9.10;94.10
5027;DHT22;2532;52.480;13.354;2023-12-28T03:15:09;9.20;93.90
5027;DHT22;2532;52.480;13.354;2023-12-28T03:17:37;9.30;93.70
5027;DHT22;2532;52.480;13.354;2023-12-28T03:20:05;9.40;93.40
5027;DHT22;2532;52.480;13.354;2023-12-28T03:22:32;9.40;93.30
5027;DHT22;2532;52.480;13.354;2023-12-28T03:24:59;9.50;93.20
5027;DHT22;2532;52.480;13.354;2023-12-28T03:27:26;9.60;93.00
5027;DHT22;2532;52.480;13.354;2023-12-28T03:29:53;9.60;92.80
5027;DHT22;2532;52.480;13.354;2023-12-28T03:32:20;9.70;92.60
5027;DHT22;2532;52.480;13.354;2023-12-28T03:34:48;9.80;92.50
5027;DHT22;2532;52.480;13.354;2023-12-28T03:37:15;9.80;92.30
5027;DHT22;2532;52.480;13.354;2023-12-28T03:39:42;9.90;92.20
5027;DHT22;2532;52.480;13.354;2023-12-28T03:42:10;9.90;92.10
5027;DHT22;2532;52.480;13.354;2023-12-28T03:44:37;10.00;91.70
5027;DHT22;2532;52.480;13.354;2023-12-28T03:47:04;10.00;91.90
5027;DHT22;2532;52.480;13.354;2023-12-28T03:49:31;10.00;92.20
5027;DHT22;2532;52.480;13.354;2023-12-28T03:51:59;10.00;92.50
5027;DHT22;2532;52.480;13.354;2023-12-28T03:54:26;10.10;92.80
5027;DHT22;2532;52.480;13.354;2023-12-28T03:56:53;10.10;93.00
5027;DHT22;2532;52.480;13.354;2023-12-28T03:59:23;10.00;93.20
5027;DHT22;2532;52.480;13.354;2023-12-28T04:01:50;10.00;93.40
5027;DHT22;2532;52.480;13.354;2023-12-28T04:04:17;10.00;93.50
5027;DHT22;2532;52.480;13.354;2023-12-28T04:06:44;10.00;93.60
5027;DHT22;2532;52.480;13.354;2023-12-28T04:09:13;10.00;93.50
5027;DHT22;2532;52.480;13.354;2023-12-28T04:11:41;10.10;93.40
5027;DHT22;2532;52.480;13.354;2023-12-28T04:14:07;10.10;93.40
5027;DHT22;2532;52.480;13.354;2023-12-28T04:16:34;10.10;93.40
5027;DHT22;2532;52.480;13.354;2023-12-28T04:19:02;10.10;93.30
5027;DHT22;2532;52.480;13.354;2023-12-28T04:21:29;10.10;93.20
5027;DHT22;2532;52.480;13.354;2023-12-28T04:23:56;10.10;93.00
5027;DHT22;2532;52.480;13.354;2023-12-28T04:26:24;10.10;93.00
5027;DHT22;2532;52.480;13.354;2023-12-28T04:28:51;10.10;92.90
5027;DHT22;2532;52.480;13.354;2023-12-28T04:31:18;10.20;92.90
5027;DHT22;2532;52.480;13.354;2023-12-28T04:33:45;10.20;92.80
5027;DHT22;2532;52.480;13.354;2023-12-28T04:36:12;10.20;92.80
5027;DHT22;2532;52.480;13.354;2023-12-28T04:38:39;10.20;92.50
5027;DHT22;2532;52.480;13.354;2023-12-28T04:41:06;10.30;92.50
5027;DHT22;2532;52.480;13.354;2023-12-28T04:43:35;10.30;92.30
5027;DHT22;2532;52.480;13.354;2023-12-28T04:46:05;10.30;92.40
5027;DHT22;2532;52.480;13.354;2023-12-28T04:48:32;10.30;92.10
5027;DHT22;2532;52.480;13.354;2023-12-28T04:51:02;10.30;92.10
5027;DHT22;2532;52.480;13.354;2023-12-28T04:53:29;10.40;92.20
5027;DHT22;2532;52.480;13.354;2023-12-28T04:55:56;10.40;92.10
5027;DHT22;2532;52.480;13.354;2023-12-28T04:58:23;10.40;92.20
5027;DHT22;2532;52.480;13.354;2023-12-28T05:00:52;10.40;92.10
5027;DHT22;2532;52.480;13.354;2023-12-28T05:03:19;10.40;92.00
5027;DHT22;2532;52.480;13.354;2023-12-28T05:05:48;10.50;92.00
5027;DHT22;2532;52.480;13.354;2023-12-28T05:08:15;10.50;92.10
5027;DHT22;2532;52.480;13.354;2023-12-28T05:10:42;10.50;92.10
5027;DHT22;2532;52.480;13.354;2023-12-28T05:13:09;10.50;92.10
5027;DHT22;2532;52.480;13.354;2023-12-28T05:15:36;10.50;92.10
5027;DHT22;2532;52.480;13.354;2023-12-28T05:18:04;10.50;92.10
5027;DHT22;2532;52.480;13.354;2023-12-28T05:20:32;10.50;92.10
5027;DHT22;2532;52.480;13.354;2023-12-28T05:22:59;10.50;92.10
5027;DHT22;2532;52.480;13.354;2023-12-28T05:25:26;10.50;92.10
5027;DHT22;2532;52.480;13.354;2023-12-28T05:27:53;10.50;92.00
5027;DHT22;2532;52.480;13.354;2023-12-28T05:30:20;10.50;92.10
5027;DHT22;2532;52.480;13.354;2023-12-28T05:32:47;10.50;92.10
5027;DHT22;2532;52.480;13.354;2023-12-28T05:35:16;10.50;92.20
5027;DHT22;2532;52.480;13.354;2023-12-28T05:37:43;10.50;92.20
5027;DHT22;2532;52.480;13.354;2023-12-28T05:40:11;10.50;92.30
5027;DHT22;2532;52.480;13.354;2023-12-28T05:42:38;10.50;92.30
5027;DHT22;2532;52.480;13.354;2023-12-28T05:45:06;10.50;92.50
5027;DHT22;2532;52.480;13.354;2023-12-28T05:47:32;10.50;92.60
5027;DHT22;2532;52.480;13.354;2023-12-28T05:49:59;10.60;92.80
5027;DHT22;2532;52.480;13.354;2023-12-28T05:52:29;10.60;92.90
5027;DHT22;2532;52.480;13.354;2023-12-28T05:54:56;10.60;93.10
5027;DHT22;2532;52.480;13.354;2023-12-28T05:57:23;10.70;93.20
5027;DHT22;2532;52.480;13.354;2023-12-28T05:59:52;10.70;93.40
5027;DHT22;2532;52.480;13.354;2023-12-28T06:02:19;10.70;93.60
5027;DHT22;2532;52.480;13.354;2023-12-28T06:04:46;10.70;93.80
5027;DHT22;2532;52.480;13.354;2023-12-28T06:07:13;10.70;93.90
5027;DHT22;2532;52.480;13.354;2023-12-28T06:09:41;10.70;94.00
5027;DHT22;2532;52.480;13.354;2023-12-28T06:12:08;10.70;94.10
5027;DHT22;2532;52.480;13.354;2023-12-28T06:14:35;10.80;94.20
5027;DHT22;2532;52.480;13.354;2023-12-28T06:17:02;10.70;94.20
5027;DHT22;2532;52.480;13.354;2023-12-28T06:19:29;10.80;94.40
5027;DHT22;2532;52.480;13.354;2023-12-28T06:21:56;10.80;94.40
5027;DHT22;2532;52.480;13.354;2023-12-28T06:24:24;10.80;94.50
5027;DHT22;2532;52.480;13.354;2023-12-28T06:26:52;10.80;94.50
5027;DHT22;2532;52.480;13.354;2023-12-28T06:29:19;10.80;94.60
5027;DHT22;2532;52.480;13.354;2023-12-28T06:31:46;10.80;94.60
5027;DHT22;2532;52.480;13.354;2023-12-28T06:34:13;10.80;94.60
5027;DHT22;2532;52.480;13.354;2023-12-28T06:36:40;10.80;94.60
5027;DHT22;2532;52.480;13.354;2023-12-28T06:39:08;10.80;94.70
5027;DHT22;2532;52.480;13.354;2023-12-28T06:41:35;10.80;94.70
5027;DHT22;2532;52.480;13.354;2023-12-28T06:44:07;10.80;94.70
5027;DHT22;2532;52.480;13.354;2023-12-28T06:46:34;10.80;94.80
5027;DHT22;2532;52.480;13.354;2023-12-28T06:49:01;10.80;95.10
5027;DHT22;2532;52.480;13.354;2023-12-28T06:51:28;10.80;95.20
5027;DHT22;2532;52.480;13.354;2023-12-28T06:53:55;10.80;95.00
5027;DHT22;2532;52.480;13.354;2023-12-28T06:56:22;10.80;95.00
5027;DHT22;2532;52.480;13.354;2023-12-28T06:58:49;10.80;95.10
5027;DHT22;2532;52.480;13.354;2023-12-28T07:01:18;10.80;95.20
5027;DHT22;2532;52.480;13.354;2023-12-28T07:03:44;10.80;95.30
5027;DHT22;2532;52.480;13.354;2023-12-28T07:06:13;10.80;95.30
5027;DHT22;2532;52.480;13.354;2023-12-28T07:08:40;10.80;95.40
5027;DHT22;2532;52.480;13.354;2023-12-28T07:11:09;10.80;95.50
5027;DHT22;2532;52.480;13.354;2023-12-28T07:13:37;10.80;95.50
5027;DHT22;2532;52.480;13.354;2023-12-28T07:16:04;10.80;95.60
5027;DHT22;2532;52.480;13.354;2023-12-28T07:18:34;10.80;95.60
5027;DHT22;2532;52.480;13.354;2023-12-28T07:21:01;10.90;95.80
5027;DHT22;2532;52.480;13.354;2023-12-28T07:23:28;10.80;95.70
5027;DHT22;2532;52.480;13.354;2023-12-28T07:25:55;10.80;95.80
5027;DHT22;2532;52.480;13.354;2023-12-28T07:28:22;10.80;95.80
5027;DHT22;2532;52.480;13.354;2023-12-28T07:30:49;10.80;95.80
5027;DHT22;2532;52.480;13.354;2023-12-28T07:33:16;10.80;95.90
5027;DHT22;2532;52.480;13.354;2023-12-28T07:35:45;10.80;95.90
5027;DHT22;2532;52.480;13.354;2023-12-28T07:38:12;10.80;96.00
5027;DHT22;2532;52.480;13.354;2023-12-28T07:40:39;10.80;96.10
5027;DHT22;2532;52.480;13.354;2023-12-28T07:43:06;10.80;96.10
5027;DHT22;2532;52.480;13.354;2023-12-28T07:45:33;10.80;96.10
5027;DHT22;2532;52.480;13.354;2023-12-28T07:48:00;10.70;96.10
5027;DHT22;2532;52.480;13.354;2023-12-28T07:50:27;10.80;96.20
5027;DHT22;2532;52.480;13.354;2023-12-28T07:52:56;10.70;96.20
5027;DHT22;2532;52.480;13.354;2023-12-28T07:55:22;10.80;96.30
5027;DHT22;2532;52.480;13.354;2023-12-28T07:57:51;10.80;96.30
5027;DHT22;2532;52.480;13.354;2023-12-28T08:00:18;10.80;96.30
5027;DHT22;2532;52.480;13.354;2023-12-28T08:02:45;10.80;96.40
5027;DHT22;2532;52.480;13.354;2023-12-28T08:05:12;10.80;96.40
5027;DHT22;2532;52.480;13.354;2023-12-28T08:07:39;10.80;96.40
5027;DHT22;2532;52.480;13.354;2023-12-28T08:10:09;10.80;96.40
5027;DHT22;2532;52.480;13.354;2023-12-28T08:12:36;10.80;96.40
5027;DHT22;2532;52.480;13.354;2023-12-28T08:15:03;10.80;96.40
5027;DHT22;2532;52.480;13.354;2023-12-28T08:17:30;10.80;96.40
5027;DHT22;2532;52.480;13.354;2023-12-28T08:19:57;10.80;96.40
5027;DHT22;2532;52.480;13.354;2023-12-28T08:22:24;10.80;96.40
5027;DHT22;2532;52.480;13.354;2023-12-28T08:24:51;10.80;96.40
5027;DHT22;2532;52.480;13.354;2023-12-28T08:27:19;10.80;96.30
5027;DHT22;2532;52.480;13.354;2023-12-28T08:29:46;10.90;96.30
5027;DHT22;2532;52.480;13.354;2023-12-28T08:32:13;10.90;96.20
5027;DHT22;2532;52.480;13.354;2023-12-28T08:34:39;10.90;96.20
5027;DHT22;2532;52.480;13.354;2023-12-28T08:37:07;10.90;96.10
5027;DHT22;2532;52.480;13.354;2023-12-28T08:39:34;10.90;96.10
5027;DHT22;2532;52.480;13.354;2023-12-28T08:42:01;10.90;96.10
5027;DHT22;2532;52.480;13.354;2023-12-28T08:44:29;11.00;96.10
5027;DHT22;2532;52.480;13.354;2023-12-28T08:46:56;11.00;96.00
5027;DHT22;2532;52.480;13.354;2023-12-28T08:49:23;11.00;96.00
5027;DHT22;2532;52.480;13.354;2023-12-28T08:51:51;11.00;96.00
5027;DHT22;2532;52.480;13.354;2023-12-28T08:54:18;11.00;96.00
5027;DHT22;2532;52.480;13.354;2023-12-28T08:56:44;11.00;95.90
5027;DHT22;2532;52.480;13.354;2023-12-28T08:59:11;11.00;95.90
5027;DHT22;2532;52.480;13.354;2023-12-28T09:01:40;11.00;95.80
5027;DHT22;2532;52.480;13.354;2023-12-28T09:04:07;11.00;95.90
5027;DHT22;2532;52.480;13.354;2023-12-28T09:06:34;11.00;95.80
5027;DHT22;2532;52.480;13.354;2023-12-28T09:09:01;11.00;95.80
5027;DHT22;2532;52.480;13.354;2023-12-28T09:11:29;11.00;95.80
5027;DHT22;2532;52.480;13.354;2023-12-28T09:13:56;11.00;95.80
5027;DHT22;2532;52.480;13.354;2023-12-28T09:16:24;11.00;95.80
5027;DHT22;2532;52.480;13.354;2023-12-28T09:18:52;11.00;95.80
5027;DHT22;2532;52.480;13.354;2023-12-28T09:21:19;11.00;95.80
5027;DHT22;2532;52.480;13.354;2023-12-28T09:23:47;11.00;95.80
5027;DHT22;2532;52.480;13.354;2023-12-28T09:26:14;11.00;95.80
5027;DHT22;2532;52.480;13.354;2023-12-28T09:28:41;11.00;95.80
5027;DHT22;2532;52.480;13.354;2023-12-28T09:31:08;11.00;95.80
5027;DHT22;2532;52.480;13.354;2023-12-28T09:33:35;11.00;95.80
5027;DHT22;2532;52.480;13.354;2023-12-28T09:36:05;11.00;95.80
5027;DHT22;2532;52.480;13.354;2023-12-28T09:38:33;11.00;96.10
5027;DHT22;2532;52.480;13.354;2023-12-28T09:41:11;11.00;95.80
5027;DHT22;2532;52.480;13.354;2023-12-28T09:43:45;11.00;95.70
5027;DHT22;2532;52.480;13.354;2023-12-28T09:46:15;11.00;95.80
5027;DHT22;2532;52.480;13.354;2023-12-28T09:48:42;11.00;95.80
5027;DHT22;2532;52.480;13.354;2023-12-28T09:51:11;11.00;95.80
5027;DHT22;2532;52.480;13.354;2023-12-28T09:53:38;11.00;95.90
5027;DHT22;2532;52.480;13.354;2023-12-28T09:56:06;10.90;95.90
5027;DHT22;2532;52.480;13.354;2023-12-28T09:58:35;10.90;95.90
5027;DHT22;2532;52.480;13.354;2023-12-28T10:01:03;10.90;96.00
5027;DHT22;2532;52.480;13.354;2023-12-28T10:03:32;10.90;96.00
5027;DHT22;2532;52.480;13.354;2023-12-28T10:05:59;10.90;96.10
5027;DHT22;2532;52.480;13.354;2023-12-28T10:08:27;10.90;96.10
5027;DHT22;2532;52.480;13.354;2023-12-28T10:10:56;10.80;96.10
5027;DHT22;2532;52.480;13.354;2023-12-28T10:13:25;10.90;96.20
5027;DHT22;2532;52.480;13.354;2023-12-28T10:15:52;10.80;96.20
5027;DHT22;2532;52.480;13.354;2023-12-28T10:18:19;10.90;96.20
5027;DHT22;2532;52.480;13.354;2023-12-28T10:20:49;10.90;96.30
5027;DHT22;2532;52.480;13.354;2023-12-28T10:23:16;10.90;96.30
5027;DHT22;2532;52.480;13.354;2023-12-28T10:25:45;10.90;96.30
5027;DHT22;2532;52.480;13.354;2023-12-28T10:28:12;10.90;96.40
5027;DHT22;2532;52.480;13.354;2023-12-28T10:30:40;10.90;96.40
5027;DHT22;2532;52.480;13.354;2023-12-28T10:33:06;10.90;96.40
5027;DHT22;2532;52.480;13.354;2023-12-28T10:35:34;10.90;96.40
5027;DHT22;2532;52.480;13.354;2023-12-28T10:38:01;10.90;96.50
5027;DHT22;2532;52.480;13.354;2023-12-28T10:40:29;10.90;96.40
5027;DHT22;2532;52.480;13.354;2023-12-28T10:42:59;11.00;96.50
5027;DHT22;2532;52.480;13.354;2023-12-28T10:45:31;11.00;96.50
5027;DHT22;2532;52.480;13.354;2023-12-28T10:48:05;11.00;96.50
5027;DHT22;2532;52.480;13.354;2023-12-28T10:50:38;11.00;96.50
5027;DHT22;2532;52.480;13.354;2023-12-28T10:53:19;11.10;96.40
5027;DHT22;2532;52.480;13.354;2023-12-28T10:55:53;11.10;96.40
5027;DHT22;2532;52.480;13.354;2023-12-28T10:58:34;11.20;96.40
5027;DHT22;2532;52.480;13.354;2023-12-28T11:01:05;11.20;96.40
5027;DHT22;2532;52.480;13.354;2023-12-28T11:03:37;11.20;96.30
5027;DHT22;2532;52.480;13.354;2023-12-28T11:06:08;11.20;96.30
5027;DHT22;2532;52.480;13.354;2023-12-28T11:08:36;11.20;96.30
5027;DHT22;2532;52.480;13.354;2023-12-28T11:11:04;11.30;96.30
5027;DHT22;2532;52.480;13.354;2023-12-28T11:13:35;11.30;96.20
5027;DHT22;2532;52.480;13.354;2023-12-28T11:16:03;11.30;96.20
5027;DHT22;2532;52.480;13.354;2023-12-28T11:18:30;11.40;96.40
5027;DHT22;2532;52.480;13.354;2023-12-28T11:20:57;11.40;96.40
5027;DHT22;2532;52.480;13.354;2023-12-28T11:23:25;11.50;96.40
5027;DHT22;2532;52.480;13.354;2023-12-28T11:25:53;11.70;98.10
5027;DHT22;2532;52.480;13.354;2023-12-28T11:28:23;11.90;96.20
5027;DHT22;2532;52.480;13.354;2023-12-28T11:30:52;12.10;96.30
5027;DHT22;2532;52.480;13.354;2023-12-28T11:33:19;12.30;95.60
5027;DHT22;2532;52.480;13.354;2023-12-28T11:35:48;12.40;95.30
5027;DHT22;2532;52.480;13.354;2023-12-28T11:38:16;12.50;95.90
5027;DHT22;2532;52.480;13.354;2023-12-28T11:40:45;12.60;94.90
5027;DHT22;2532;52.480;13.354;2023-12-28T11:43:18;12.70;95.10
5027;DHT22;2532;52.480;13.354;2023-12-28T11:45:49;12.80;94.50
5027;DHT22;2532;52.480;13.354;2023-12-28T11:48:24;12.80;94.60
5027;DHT22;2532;52.480;13.354;2023-12-28T11:50:54;12.80;94.70
5027;DHT22;2532;52.480;13.354;2023-12-28T11:53:23;12.90;94.40
5027;DHT22;2532;52.480;13.354;2023-12-28T11:55:50;12.90;93.90
5027;DHT22;2532;52.480;13.354;2023-12-28T11:58:17;12.80;93.80
5027;DHT22;2532;52.480;13.354;2023-12-28T12:00:44;12.70;93.80
5027;DHT22;2532;52.480;13.354;2023-12-28T12:03:12;12.60;93.90
5027;DHT22;2532;52.480;13.354;2023-12-28T12:05:43;12.50;94.00
5027;DHT22;2532;52.480;13.354;2023-12-28T12:08:11;12.50;94.20
5027;DHT22;2532;52.480;13.354;2023-12-28T12:10:40;12.50;94.10
5027;DHT22;2532;52.480;13.354;2023-12-28T12:13:07;12.40;94.10
5027;DHT22;2532;52.480;13.354;2023-12-28T12:15:34;12.40;94.20
5027;DHT22;2532;52.480;13.354;2023-12-28T12:18:01;12.40;94.30
5027;DHT22;2532;52.480;13.354;2023-12-28T12:20:29;12.40;94.30
5027;DHT22;2532;52.480;13.354;2023-12-28T12:22:59;12.40;94.40
5027;DHT22;2532;52.480;13.354;2023-12-28T12:25:26;12.30;94.30
5027;DHT22;2532;52.480;13.354;2023-12-28T12:27:55;12.30;94.30
5027;DHT22;2532;52.480;13.354;2023-12-28T12:30:22;12.40;94.40
5027;DHT22;2532;52.480;13.354;2023-12-28T12:32:49;12.30;94.40
5027;DHT22;2532;52.480;13.354;2023-12-28T12:35:16;12.30;94.50
5027;DHT22;2532;52.480;13.354;2023-12-28T12:37:46;12.30;94.50
5027;DHT22;2532;52.480;13.354;2023-12-28T12:40:16;12.30;94.50
5027;DHT22;2532;52.480;13.354;2023-12-28T12:42:52;12.40;94.70
5027;DHT22;2532;52.480;13.354;2023-12-28T12:45:19;12.30;94.50
5027;DHT22;2532;52.480;13.354;2023-12-28T12:47:49;12.30;94.50
5027;DHT22;2532;52.480;13.354;2023-12-28T12:50:16;12.30;94.50
5027;DHT22;2532;52.480;13.354;2023-12-28T12:52:43;12.30;94.60
5027;DHT22;2532;52.480;13.354;2023-12-28T12:55:11;12.30;94.70
5027;DHT22;2532;52.480;13.354;2023-12-28T12:57:39;12.30;94.60
5027;DHT22;2532;52.480;13.354;2023-12-28T13:00:09;12.30;94.70
5027;DHT22;2532;52.480;13.354;2023-12-28T13:02:37;12.30;94.70
5027;DHT22;2532;52.480;13.354;2023-12-28T13:05:05;12.30;94.70
5027;DHT22;2532;52.480;13.354;2023-12-28T13:07:34;12.30;94.70
5027;DHT22;2532;52.480;13.354;2023-12-28T13:10:01;12.30;94.80
5027;DHT22;2532;52.480;13.354;2023-12-28T13:12:28;12.30;94.90
5027;DHT22;2532;52.480;13.354;2023-12-28T13:14:56;12.30;94.70
5027;DHT22;2532;52.480;13.354;2023-12-28T13:17:23;12.30;94.80
5027;DHT22;2532;52.480;13.354;2023-12-28T13:19:50;12.40;94.80
5027;DHT22;2532;52.480;13.354;2023-12-28T13:22:17;12.30;94.70
5027;DHT22;2532;52.480;13.354;2023-12-28T13:24:44;12.40;94.70
5027;DHT22;2532;52.480;13.354;2023-12-28T13:27:11;12.40;94.70
5027;DHT22;2532;52.480;13.354;2023-12-28T13:29:40;12.40;94.80
5027;DHT22;2532;52.480;13.354;2023-12-28T13:32:10;12.40;94.80
5027;DHT22;2532;52.480;13.354;2023-12-28T13:34:37;12.40;94.80
5027;DHT22;2532;52.480;13.354;2023-12-28T13:37:04;12.40;94.80
5027;DHT22;2532;52.480;13.354;2023-12-28T13:39:31;12.40;94.80
5027;DHT22;2532;52.480;13.354;2023-12-28T13:42:04;12.30;94.80
5027;DHT22;2532;52.480;13.354;2023-12-28T13:44:32;12.40;94.90
5027;DHT22;2532;52.480;13.354;2023-12-28T13:46:59;12.40;94.80
5027;DHT22;2532;52.480;13.354;2023-12-28T13:49:28;12.50;94.90
5027;DHT22;2532;52.480;13.354;2023-12-28T13:51:55;12.50;94.80
5027;DHT22;2532;52.480;13.354;2023-12-28T13:54:23;12.50;94.80
5027;DHT22;2532;52.480;13.354;2023-12-28T13:56:50;12.50;94.60
5027;DHT22;2532;52.480;13.354;2023-12-28T13:59:22;12.50;94.60
5027;DHT22;2532;52.480;13.354;2023-12-28T14:01:56;12.50;94.50
5027;DHT22;2532;52.480;13.354;2023-12-28T14:04:23;12.50;94.50
5027;DHT22;2532;52.480;13.354;2023-12-28T14:06:52;12.50;94.50
5027;DHT22;2532;52.480;13.354;2023-12-28T14:09:19;12.40;94.50
5027;DHT22;2532;52.480;13.354;2023-12-28T14:11:47;12.40;94.50
5027;DHT22;2532;52.480;13.354;2023-12-28T14:14:14;12.40;94.40
5027;DHT22;2532;52.480;13.354;2023-12-28T14:16:41;12.40;94.50
5027;DHT22;2532;52.480;13.354;2023-12-28T14:19:09;12.40;94.40
5027;DHT22;2532;52.480;13.354;2023-12-28T14:21:36;12.40;94.40
5027;DHT22;2532;52.480;13.354;2023-12-28T14:24:09;12.40;94.40
5027;DHT22;2532;52.480;13.354;2023-12-28T14:26:40;12.40;94.40
5027;DHT22;2532;52.480;13.354;2023-12-28T14:29:08;12.40;94.40
5027;DHT22;2532;52.480;13.354;2023-12-28T14:31:36;12.30;94.50
5027;DHT22;2532;52.480;13.354;2023-12-28T14:34:04;12.30;94.50
5027;DHT22;2532;52.480;13.354;2023-12-28T14:36:33;12.30;94.50
5027;DHT22;2532;52.480;13.354;2023-12-28T14:39:02;12.30;94.40
5027;DHT22;2532;52.480;13.354;2023-12-28T14:41:32;12.30;94.50
5027;DHT22;2532;52.480;13.354;2023-12-28T14:43:59;12.20;94.50
5027;DHT22;2532;52.480;13.354;2023-12-28T14:46:26;12.20;94.50
5027;DHT22;2532;52.480;13.354;2023-12-28T14:48:53;12.20;94.60
5027;DHT22;2532;52.480;13.354;2023-12-28T14:51:21;12.10;94.60
5027;DHT22;2532;52.480;13.354;2023-12-28T14:53:48;12.10;94.60
5027;DHT22;2532;52.480;13.354;2023-12-28T14:56:15;12.20;94.70
5027;DHT22;2532;52.480;13.354;2023-12-28T14:58:44;12.10;94.70
5027;DHT22;2532;52.480;13.354;2023-12-28T15:01:13;12.10;94.70
5027;DHT22;2532;52.480;13.354;2023-12-28T15:03:40;12.00;94.70
5027;DHT22;2532;52.480;13.354;2023-12-28T15:06:07;12.00;94.90
5027;DHT22;2532;52.480;13.354;2023-12-28T15:08:34;12.00;95.00
5027;DHT22;2532;52.480;13.354;2023-12-28T15:11:02;12.00;95.00
5027;DHT22;2532;52.480;13.354;2023-12-28T15:13:30;11.90;95.10
5027;DHT22;2532;52.480;13.354;2023-12-28T15:15:59;11.90;95.20
5027;DHT22;2532;52.480;13.354;2023-12-28T15:18:27;11.90;95.20
5027;DHT22;2532;52.480;13.354;2023-12-28T15:20:54;11.90;95.70
5027;DHT22;2532;52.480;13.354;2023-12-28T15:23:22;11.80;95.40
5027;DHT22;2532;52.480;13.354;2023-12-28T15:25:49;11.80;95.40
5027;DHT22;2532;52.480;13.354;2023-12-28T15:28:16;11.80;95.50
5027;DHT22;2532;52.480;13.354;2023-12-28T15:30:44;11.70;95.50
5027;DHT22;2532;52.480;13.354;2023-12-28T15:33:13;11.70;95.50
5027;DHT22;2532;52.480;13.354;2023-12-28T15:35:40;11.70;95.60
5027;DHT22;2532;52.480;13.354;2023-12-28T15:38:07;11.60;95.60
5027;DHT22;2532;52.480;13.354;2023-12-28T15:40:34;11.60;95.60
5027;DHT22;2532;52.480;13.354;2023-12-28T15:43:01;11.60;95.70
5027;DHT22;2532;52.480;13.354;2023-12-28T15:45:29;11.60;95.70
5027;DHT22;2532;52.480;13.354;2023-12-28T15:47:57;11.60;95.70
5027;DHT22;2532;52.480;13.354;2023-12-28T15:50:25;11.60;95.80
5027;DHT22;2532;52.480;13.354;2023-12-28T15:52:52;11.50;95.80